sensor_id;sensor_type;location;lat;lon;timestamp;P1;durP1;ratioP1;P2;durP2;ratioP2
13580;SDS011;6861;46.170;7.222;2023-05-14T00:02:14;3.40;;;2.58;;
13580;SDS011;6861;46.170;7.222;2023-05-14T00:04:45;2.88;;;2.63;;
13580;SDS011;6861;46.170;7.222;2023-05-14T00:07:13;4.75;;;2.80;;
13580;SDS011;6861;46.170;7.222;2023-05-14T00:09:42;4.07;;;2.70;;
13580;SDS011;6861;46.170;7.222;2023-05-14T00:12:11;2.97;;;2.67;;
13580;SDS011;6861;46.170;7.222;2023-05-14T00:14:40;3.00;;;2.67;;
13580;SDS011;6861;46.170;7.222;2023-05-14T00:17:08;3.08;;;2.45;;
13580;SDS011;6861;46.170;7.222;2023-05-14T00:19:37;3.90;;;2.83;;
13580;SDS011;6861;46.170;7.222;2023-05-14T00:22:09;3.30;;;2.70;;
13580;SDS011;6861;46.170;7.222;2023-05-14T00:24:38;2.90;;;2.70;;
13580;SDS011;6861;46.170;7.222;2023-05-14T00:27:06;2.72;;;2.53;;
13580;SDS011;6861;46.170;7.222;2023-05-14T00:29:35;3.00;;;2.70;;
13580;SDS011;6861;46.170;7.222;2023-05-14T00:32:04;3.10;;;2.80;;
13580;SDS011;6861;46.170;7.222;2023-05-14T00:34:33;4.47;;;2.50;;
13580;SDS011;6861;46.170;7.222;2023-05-14T00:37:02;2.85;;;2.65;;
13580;SDS011;6861;46.170;7.222;2023-05-14T00:39:32;3.08;;;2.67;;
13580;SDS011;6861;46.170;7.222;2023-05-14T00:44:53;2.50;;;2.30;;
13580;SDS011;6861;46.170;7.222;2023-05-14T00:47:21;3.08;;;2.40;;
13580;SDS011;6861;46.170;7.222;2023-05-14T00:49:51;2.78;;;2.25;;
13580;SDS011;6861;46.170;7.222;2023-05-14T00:52:20;2.45;;;2.22;;
13580;SDS011;6861;46.170;7.222;2023-05-14T00:54:50;3.05;;;2.40;;
13580;SDS011;6861;46.170;7.222;2023-05-14T00:57:18;2.70;;;2.50;;
13580;SDS011;6861;46.170;7.222;2023-05-14T00:59:47;2.30;;;2.10;;
13580;SDS011;6861;46.170;7.222;2023-05-14T01:02:16;2.13;;;1.92;;
13580;SDS011;6861;46.170;7.222;2023-05-14T01:04:45;2.58;;;2.38;;
13580;SDS011;6861;46.170;7.222;2023-05-14T01:07:15;2.50;;;2.30;;
13580;SDS011;6861;46.170;7.222;2023-05-14T01:09:52;2.80;;;2.50;;
13580;SDS011;6861;46.170;7.222;2023-05-14T01:12:28;3.65;;;2.65;;
13580;SDS011;6861;46.170;7.222;2023-05-14T01:15:05;3.08;;;2.75;;
13580;SDS011;6861;46.170;7.222;2023-05-14T01:17:38;2.40;;;2.20;;
13580;SDS011;6861;46.170;7.222;2023-05-14T01:20:10;2.55;;;2.35;;
13580;SDS011;6861;46.170;7.222;2023-05-14T01:22:40;2.58;;;2.20;;
13580;SDS011;6861;46.170;7.222;2023-05-14T01:25:09;2.47;;;2.28;;
13580;SDS011;6861;46.170;7.222;2023-05-14T01:27:40;3.33;;;2.17;;
13580;SDS011;6861;46.170;7.222;2023-05-14T01:30:16;2.40;;;2.20;;
13580;SDS011;6861;46.170;7.222;2023-05-14T01:32:50;2.25;;;2.05;;
13580;SDS011;6861;46.170;7.222;2023-05-14T01:35:23;2.25;;;2.05;;
13580;SDS011;6861;46.170;7.222;2023-05-14T01:37:55;2.20;;;2.00;;
13580;SDS011;6861;46.170;7.222;2023-05-14T01:40:26;2.85;;;2.13;;
13580;SDS011;6861;46.170;7.222;2023-05-14T01:42:54;2.47;;;2.28;;
13580;SDS011;6861;46.170;7.222;2023-05-14T01:45:23;2.83;;;2.30;;
13580;SDS011;6861;46.170;7.222;2023-05-14T01:47:52;1.85;;;1.70;;
13580;SDS011;6861;46.170;7.222;2023-05-14T01:50:20;2.38;;;2.17;;
13580;SDS011;6861;46.170;7.222;2023-05-14T01:52:49;2.85;;;2.28;;
13580;SDS011;6861;46.170;7.222;2023-05-14T01:55:20;2.58;;;1.92;;
13580;SDS011;6861;46.170;7.222;2023-05-14T01:57:49;2.30;;;2.10;;
13580;SDS011;6861;46.170;7.222;2023-05-14T02:00:17;2.15;;;1.90;;
13580;SDS011;6861;46.170;7.222;2023-05-14T02:02:46;2.20;;;2.00;;
13580;SDS011;6861;46.170;7.222;2023-05-14T02:05:14;2.42;;;2.03;;
13580;SDS011;6861;46.170;7.222;2023-05-14T02:07:42;3.55;;;2.20;;
13580;SDS011;6861;46.170;7.222;2023-05-14T02:10:10;4.03;;;2.05;;
13580;SDS011;6861;46.170;7.222;2023-05-14T02:12:40;3.67;;;2.03;;
13580;SDS011;6861;46.170;7.222;2023-05-14T02:15:08;2.20;;;1.90;;
13580;SDS011;6861;46.170;7.222;2023-05-14T02:17:37;1.80;;;1.70;;
13580;SDS011;6861;46.170;7.222;2023-05-14T02:20:06;1.55;;;1.45;;
13580;SDS011;6861;46.170;7.222;2023-05-14T02:22:36;2.17;;;1.63;;
13580;SDS011;6861;46.170;7.222;2023-05-14T02:25:08;1.40;;;1.30;;
13580;SDS011;6861;46.170;7.222;2023-05-14T02:27:36;1.83;;;1.55;;
13580;SDS011;6861;46.170;7.222;2023-05-14T02:30:06;1.70;;;1.60;;
13580;SDS011;6861;46.170;7.222;2023-05-14T02:32:36;1.55;;;1.40;;
13580;SDS011;6861;46.170;7.222;2023-05-14T02:35:05;1.77;;;1.60;;
13580;SDS011;6861;46.170;7.222;2023-05-14T02:37:33;2.40;;;1.52;;
13580;SDS011;6861;46.170;7.222;2023-05-14T02:40:02;1.75;;;1.45;;
13580;SDS011;6861;46.170;7.222;2023-05-14T02:42:30;1.92;;;1.33;;
13580;SDS011;6861;46.170;7.222;2023-05-14T02:44:58;2.00;;;1.50;;
13580;SDS011;6861;46.170;7.222;2023-05-14T02:47:28;1.95;;;1.35;;
13580;SDS011;6861;46.170;7.222;2023-05-14T02:49:56;1.73;;;1.20;;
13580;SDS011;6861;46.170;7.222;2023-05-14T02:52:24;2.35;;;1.58;;
13580;SDS011;6861;46.170;7.222;2023-05-14T02:54:53;1.50;;;1.40;;
13580;SDS011;6861;46.170;7.222;2023-05-14T02:57:21;1.52;;;1.42;;
13580;SDS011;6861;46.170;7.222;2023-05-14T02:59:49;1.75;;;1.50;;
13580;SDS011;6861;46.170;7.222;2023-05-14T03:02:17;1.52;;;1.42;;
13580;SDS011;6861;46.170;7.222;2023-05-14T03:04:47;3.58;;;1.50;;
13580;SDS011;6861;46.170;7.222;2023-05-14T03:07:15;3.30;;;1.40;;
13580;SDS011;6861;46.170;7.222;2023-05-14T03:09:44;0.85;;;0.80;;
13580;SDS011;6861;46.170;7.222;2023-05-14T03:12:12;1.27;;;0.90;;
13580;SDS011;6861;46.170;7.222;2023-05-14T03:14:40;1.20;;;0.98;;
13580;SDS011;6861;46.170;7.222;2023-05-14T03:17:08;0.98;;;0.80;;
13580;SDS011;6861;46.170;7.222;2023-05-14T03:19:37;1.10;;;0.80;;
13580;SDS011;6861;46.170;7.222;2023-05-14T03:22:06;2.45;;;1.00;;
13580;SDS011;6861;46.170;7.222;2023-05-14T03:24:36;1.15;;;0.80;;
13580;SDS011;6861;46.170;7.222;2023-05-14T03:27:06;2.15;;;0.80;;
13580;SDS011;6861;46.170;7.222;2023-05-14T03:29:34;1.20;;;1.05;;
13580;SDS011;6861;46.170;7.222;2023-05-14T03:32:02;1.20;;;0.90;;
13580;SDS011;6861;46.170;7.222;2023-05-14T03:34:31;1.13;;;0.90;;
13580;SDS011;6861;46.170;7.222;2023-05-14T03:36:59;1.30;;;1.20;;
13580;SDS011;6861;46.170;7.222;2023-05-14T03:39:29;1.00;;;0.90;;
13580;SDS011;6861;46.170;7.222;2023-05-14T03:41:57;1.58;;;1.27;;
13580;SDS011;6861;46.170;7.222;2023-05-14T03:44:25;1.13;;;1.00;;
13580;SDS011;6861;46.170;7.222;2023-05-14T03:46:54;1.75;;;1.10;;
13580;SDS011;6861;46.170;7.222;2023-05-14T03:49:22;2.03;;;0.90;;
13580;SDS011;6861;46.170;7.222;2023-05-14T03:51:50;1.20;;;1.10;;
13580;SDS011;6861;46.170;7.222;2023-05-14T03:54:18;1.23;;;1.00;;
13580;SDS011;6861;46.170;7.222;2023-05-14T03:56:48;1.13;;;0.98;;
13580;SDS011;6861;46.170;7.222;2023-05-14T03:59:16;2.10;;;1.10;;
13580;SDS011;6861;46.170;7.222;2023-05-14T04:01:44;0.90;;;0.90;;
13580;SDS011;6861;46.170;7.222;2023-05-14T04:04:12;1.08;;;0.82;;
13580;SDS011;6861;46.170;7.222;2023-05-14T04:06:41;1.33;;;0.90;;
13580;SDS011;6861;46.170;7.222;2023-05-14T04:09:09;0.93;;;0.90;;
13580;SDS011;6861;46.170;7.222;2023-05-14T04:11:37;0.90;;;0.90;;
13580;SDS011;6861;46.170;7.222;2023-05-14T04:14:06;1.05;;;0.80;;
13580;SDS011;6861;46.170;7.222;2023-05-14T04:16:35;2.13;;;0.90;;
13580;SDS011;6861;46.170;7.222;2023-05-14T04:19:03;1.17;;;1.08;;
13580;SDS011;6861;46.170;7.222;2023-05-14T04:21:31;2.97;;;1.10;;
13580;SDS011;6861;46.170;7.222;2023-05-14T04:23:59;1.10;;;1.00;;
13580;SDS011;6861;46.170;7.222;2023-05-14T04:26:27;1.15;;;1.00;;
13580;SDS011;6861;46.170;7.222;2023-05-14T04:28:55;1.33;;;1.00;;
13580;SDS011;6861;46.170;7.222;2023-05-14T04:31:29;0.70;;;0.70;;
13580;SDS011;6861;46.170;7.222;2023-05-14T04:33:58;2.53;;;1.00;;
13580;SDS011;6861;46.170;7.222;2023-05-14T04:36:26;1.88;;;0.82;;
13580;SDS011;6861;46.170;7.222;2023-05-14T04:38:54;2.35;;;1.05;;
13580;SDS011;6861;46.170;7.222;2023-05-14T04:41:22;3.55;;;1.00;;
13580;SDS011;6861;46.170;7.222;2023-05-14T04:43:53;1.75;;;1.00;;
13580;SDS011;6861;46.170;7.222;2023-05-14T04:46:22;1.85;;;0.98;;
13580;SDS011;6861;46.170;7.222;2023-05-14T04:48:52;1.58;;;1.27;;
13580;SDS011;6861;46.170;7.222;2023-05-14T04:51:20;1.35;;;1.00;;
13580;SDS011;6861;46.170;7.222;2023-05-14T04:53:48;1.60;;;1.20;;
13580;SDS011;6861;46.170;7.222;2023-05-14T04:56:16;1.10;;;1.00;;
13580;SDS011;6861;46.170;7.222;2023-05-14T04:58:44;1.02;;;0.90;;
13580;SDS011;6861;46.170;7.222;2023-05-14T05:01:12;1.80;;;1.08;;
13580;SDS011;6861;46.170;7.222;2023-05-14T05:03:41;1.15;;;0.90;;
13580;SDS011;6861;46.170;7.222;2023-05-14T05:06:11;1.02;;;0.88;;
13580;SDS011;6861;46.170;7.222;2023-05-14T05:08:39;1.20;;;0.82;;
13580;SDS011;6861;46.170;7.222;2023-05-14T05:11:07;1.77;;;1.20;;
13580;SDS011;6861;46.170;7.222;2023-05-14T05:13:35;2.10;;;1.00;;
13580;SDS011;6861;46.170;7.222;2023-05-14T05:16:04;1.15;;;1.00;;
13580;SDS011;6861;46.170;7.222;2023-05-14T05:18:32;1.77;;;1.20;;
13580;SDS011;6861;46.170;7.222;2023-05-14T05:21:00;1.27;;;0.82;;
13580;SDS011;6861;46.170;7.222;2023-05-14T05:23:30;2.63;;;0.90;;
13580;SDS011;6861;46.170;7.222;2023-05-14T05:25:58;1.08;;;0.98;;
13580;SDS011;6861;46.170;7.222;2023-05-14T05:28:27;1.65;;;0.82;;
13580;SDS011;6861;46.170;7.222;2023-05-14T05:30:55;2.65;;;0.95;;
13580;SDS011;6861;46.170;7.222;2023-05-14T05:33:23;2.00;;;0.93;;
13580;SDS011;6861;46.170;7.222;2023-05-14T05:35:52;1.38;;;1.00;;
13580;SDS011;6861;46.170;7.222;2023-05-14T05:38:20;1.75;;;1.10;;
13580;SDS011;6861;46.170;7.222;2023-05-14T05:40:50;1.92;;;1.00;;
13580;SDS011;6861;46.170;7.222;2023-05-14T05:43:18;1.35;;;1.10;;
13580;SDS011;6861;46.170;7.222;2023-05-14T05:45:46;3.35;;;1.80;;
13580;SDS011;6861;46.170;7.222;2023-05-14T05:48:14;2.55;;;1.50;;
13580;SDS011;6861;46.170;7.222;2023-05-14T05:50:43;1.75;;;1.63;;
13580;SDS011;6861;46.170;7.222;2023-05-14T05:53:13;2.05;;;1.85;;
13580;SDS011;6861;46.170;7.222;2023-05-14T05:55:42;1.83;;;1.63;;
13580;SDS011;6861;46.170;7.222;2023-05-14T05:58:11;1.80;;;1.70;;
13580;SDS011;6861;46.170;7.222;2023-05-14T06:00:42;1.92;;;1.83;;
13580;SDS011;6861;46.170;7.222;2023-05-14T06:03:11;2.90;;;2.20;;
13580;SDS011;6861;46.170;7.222;2023-05-14T06:05:40;2.42;;;2.22;;
13580;SDS011;6861;46.170;7.222;2023-05-14T06:08:08;4.28;;;3.05;;
13580;SDS011;6861;46.170;7.222;2023-05-14T06:10:36;3.92;;;2.60;;
13580;SDS011;6861;46.170;7.222;2023-05-14T06:13:04;2.50;;;2.30;;
13580;SDS011;6861;46.170;7.222;2023-05-14T06:15:34;4.35;;;2.22;;
13580;SDS011;6861;46.170;7.222;2023-05-14T06:18:02;2.20;;;2.08;;
13580;SDS011;6861;46.170;7.222;2023-05-14T06:20:31;3.75;;;2.63;;
13580;SDS011;6861;46.170;7.222;2023-05-14T06:22:59;2.53;;;2.20;;
13580;SDS011;6861;46.170;7.222;2023-05-14T06:25:27;2.33;;;2.13;;
13580;SDS011;6861;46.170;7.222;2023-05-14T06:27:55;2.53;;;2.28;;
13580;SDS011;6861;46.170;7.222;2023-05-14T06:30:23;2.35;;;2.08;;
13580;SDS011;6861;46.170;7.222;2023-05-14T06:32:53;2.65;;;2.00;;
13580;SDS011;6861;46.170;7.222;2023-05-14T06:35:22;2.63;;;2.30;;
13580;SDS011;6861;46.170;7.222;2023-05-14T06:37:50;2.20;;;2.00;;
13580;SDS011;6861;46.170;7.222;2023-05-14T06:40:18;1.98;;;1.85;;
13580;SDS011;6861;46.170;7.222;2023-05-14T06:42:47;2.30;;;1.55;;
13580;SDS011;6861;46.170;7.222;2023-05-14T06:45:15;2.10;;;1.90;;
13580;SDS011;6861;46.170;7.222;2023-05-14T06:47:44;2.65;;;1.85;;
13580;SDS011;6861;46.170;7.222;2023-05-14T06:50:14;2.05;;;1.50;;
13580;SDS011;6861;46.170;7.222;2023-05-14T06:52:42;2.70;;;1.63;;
13580;SDS011;6861;46.170;7.222;2023-05-14T06:55:10;1.77;;;1.67;;
13580;SDS011;6861;46.170;7.222;2023-05-14T06:57:38;2.10;;;1.90;;
13580;SDS011;6861;46.170;7.222;2023-05-14T07:00:07;1.80;;;1.52;;
13580;SDS011;6861;46.170;7.222;2023-05-14T07:02:36;1.45;;;1.33;;
13580;SDS011;6861;46.170;7.222;2023-05-14T07:05:04;1.77;;;1.67;;
13580;SDS011;6861;46.170;7.222;2023-05-14T07:07:35;2.72;;;1.70;;
13580;SDS011;6861;46.170;7.222;2023-05-14T07:10:03;3.30;;;1.67;;
13580;SDS011;6861;46.170;7.222;2023-05-14T07:12:33;2.40;;;1.80;;
13580;SDS011;6861;46.170;7.222;2023-05-14T07:15:01;1.95;;;1.75;;
13580;SDS011;6861;46.170;7.222;2023-05-14T07:17:30;2.38;;;2.10;;
13580;SDS011;6861;46.170;7.222;2023-05-14T07:19:58;3.83;;;2.95;;
13580;SDS011;6861;46.170;7.222;2023-05-14T07:22:26;9.82;;;6.63;;
13580;SDS011;6861;46.170;7.222;2023-05-14T07:24:56;3.97;;;3.58;;
13580;SDS011;6861;46.170;7.222;2023-05-14T07:27:24;2.53;;;2.30;;
13580;SDS011;6861;46.170;7.222;2023-05-14T07:29:52;2.42;;;2.22;;
13580;SDS011;6861;46.170;7.222;2023-05-14T07:32:21;4.35;;;2.45;;
13580;SDS011;6861;46.170;7.222;2023-05-14T07:34:50;2.20;;;2.00;;
13580;SDS011;6861;46.170;7.222;2023-05-14T07:37:18;3.17;;;2.15;;
13580;SDS011;6861;46.170;7.222;2023-05-14T07:39:49;2.30;;;2.00;;
13580;SDS011;6861;46.170;7.222;2023-05-14T07:42:19;3.00;;;2.67;;
13580;SDS011;6861;46.170;7.222;2023-05-14T07:45:00;2.63;;;2.40;;
13580;SDS011;6861;46.170;7.222;2023-05-14T07:47:29;2.55;;;2.30;;
13580;SDS011;6861;46.170;7.222;2023-05-14T07:49:58;2.50;;;2.20;;
13580;SDS011;6861;46.170;7.222;2023-05-14T07:52:26;2.50;;;2.30;;
13580;SDS011;6861;46.170;7.222;2023-05-14T07:54:54;2.60;;;2.40;;
13580;SDS011;6861;46.170;7.222;2023-05-14T07:57:24;2.50;;;2.30;;
13580;SDS011;6861;46.170;7.222;2023-05-14T07:59:52;2.45;;;2.25;;
13580;SDS011;6861;46.170;7.222;2023-05-14T08:02:20;3.85;;;2.28;;
13580;SDS011;6861;46.170;7.222;2023-05-14T08:04:49;2.63;;;2.42;;
13580;SDS011;6861;46.170;7.222;2023-05-14T08:07:17;2.85;;;2.50;;
13580;SDS011;6861;46.170;7.222;2023-05-14T08:09:46;2.60;;;2.40;;
13580;SDS011;6861;46.170;7.222;2023-05-14T08:12:14;2.40;;;2.20;;
13580;SDS011;6861;46.170;7.222;2023-05-14T08:14:44;2.03;;;1.88;;
13580;SDS011;6861;46.170;7.222;2023-05-14T08:17:12;3.13;;;2.42;;
13580;SDS011;6861;46.170;7.222;2023-05-14T08:19:40;2.45;;;2.25;;
13580;SDS011;6861;46.170;7.222;2023-05-14T08:22:09;1.70;;;1.58;;
13580;SDS011;6861;46.170;7.222;2023-05-14T08:24:37;1.55;;;1.45;;
13580;SDS011;6861;46.170;7.222;2023-05-14T08:27:05;2.97;;;1.30;;
13580;SDS011;6861;46.170;7.222;2023-05-14T08:29:33;1.20;;;1.00;;
13580;SDS011;6861;46.170;7.222;2023-05-14T08:32:04;1.40;;;1.10;;
13580;SDS011;6861;46.170;7.222;2023-05-14T08:34:47;1.23;;;1.13;;
13580;SDS011;6861;46.170;7.222;2023-05-14T08:37:16;1.20;;;0.93;;
13580;SDS011;6861;46.170;7.222;2023-05-14T08:39:44;0.93;;;0.80;;
13580;SDS011;6861;46.170;7.222;2023-05-14T08:42:12;1.00;;;0.90;;
13580;SDS011;6861;46.170;7.222;2023-05-14T08:44:46;1.02;;;0.93;;
13580;SDS011;6861;46.170;7.222;2023-05-14T08:47:17;1.20;;;1.10;;
13580;SDS011;6861;46.170;7.222;2023-05-14T08:49:48;3.10;;;1.10;;
13580;SDS011;6861;46.170;7.222;2023-05-14T08:52:21;1.13;;;1.02;;
13580;SDS011;6861;46.170;7.222;2023-05-14T08:54:50;1.02;;;0.90;;
13580;SDS011;6861;46.170;7.222;2023-05-14T08:57:21;1.23;;;0.90;;
13580;SDS011;6861;46.170;7.222;2023-05-14T08:59:52;3.22;;;1.63;;
13580;SDS011;6861;46.170;7.222;2023-05-14T09:02:26;1.30;;;1.20;;
13580;SDS011;6861;46.170;7.222;2023-05-14T09:04:56;1.50;;;1.00;;
13580;SDS011;6861;46.170;7.222;2023-05-14T09:07:26;3.00;;;1.10;;
13580;SDS011;6861;46.170;7.222;2023-05-14T09:09:54;1.08;;;0.98;;
13580;SDS011;6861;46.170;7.222;2023-05-14T09:12:23;1.05;;;0.98;;
13580;SDS011;6861;46.170;7.222;2023-05-14T09:14:51;1.35;;;1.25;;
13580;SDS011;6861;46.170;7.222;2023-05-14T09:17:20;2.05;;;1.40;;
13580;SDS011;6861;46.170;7.222;2023-05-14T09:19:50;1.10;;;1.00;;
13580;SDS011;6861;46.170;7.222;2023-05-14T09:22:18;3.25;;;1.67;;
13580;SDS011;6861;46.170;7.222;2023-05-14T09:25:00;3.17;;;1.10;;
13580;SDS011;6861;46.170;7.222;2023-05-14T09:27:30;2.33;;;1.20;;
13580;SDS011;6861;46.170;7.222;2023-05-14T09:30:06;1.80;;;1.45;;
13580;SDS011;6861;46.170;7.222;2023-05-14T09:32:36;1.88;;;1.63;;
13580;SDS011;6861;46.170;7.222;2023-05-14T09:35:11;1.80;;;1.70;;
13580;SDS011;6861;46.170;7.222;2023-05-14T09:37:44;1.90;;;1.80;;
13580;SDS011;6861;46.170;7.222;2023-05-14T09:40:13;2.65;;;1.90;;
13580;SDS011;6861;46.170;7.222;2023-05-14T09:42:43;2.78;;;2.50;;
13580;SDS011;6861;46.170;7.222;2023-05-14T09:45:11;2.22;;;2.00;;
13580;SDS011;6861;46.170;7.222;2023-05-14T09:47:39;2.13;;;1.92;;
13580;SDS011;6861;46.170;7.222;2023-05-14T09:50:09;1.92;;;1.30;;
13580;SDS011;6861;46.170;7.222;2023-05-14T09:52:39;2.15;;;1.58;;
13580;SDS011;6861;46.170;7.222;2023-05-14T09:55:07;2.60;;;1.88;;
13580;SDS011;6861;46.170;7.222;2023-05-14T09:57:36;1.65;;;1.55;;
13580;SDS011;6861;46.170;7.222;2023-05-14T10:00:05;2.83;;;1.70;;
13580;SDS011;6861;46.170;7.222;2023-05-14T10:02:36;1.90;;;1.80;;
13580;SDS011;6861;46.170;7.222;2023-05-14T10:05:07;1.83;;;1.73;;
13580;SDS011;6861;46.170;7.222;2023-05-14T10:07:38;2.10;;;1.77;;
13580;SDS011;6861;46.170;7.222;2023-05-14T10:10:10;2.67;;;1.88;;
13580;SDS011;6861;46.170;7.222;2023-05-14T10:12:41;1.85;;;1.75;;
13580;SDS011;6861;46.170;7.222;2023-05-14T10:15:15;2.47;;;1.92;;
13580;SDS011;6861;46.170;7.222;2023-05-14T10:17:47;1.65;;;1.55;;
13580;SDS011;6861;46.170;7.222;2023-05-14T10:20:17;3.03;;;1.77;;
13580;SDS011;6861;46.170;7.222;2023-05-14T10:22:49;5.90;;;2.00;;
13580;SDS011;6861;46.170;7.222;2023-05-14T10:25:17;2.05;;;1.85;;
13580;SDS011;6861;46.170;7.222;2023-05-14T10:27:46;2.03;;;1.50;;
13580;SDS011;6861;46.170;7.222;2023-05-14T10:30:14;1.50;;;1.40;;
13580;SDS011;6861;46.170;7.222;2023-05-14T10:32:42;1.95;;;1.70;;
13580;SDS011;6861;46.170;7.222;2023-05-14T10:35:14;2.28;;;1.10;;
13580;SDS011;6861;46.170;7.222;2023-05-14T10:37:43;2.17;;;1.55;;
13580;SDS011;6861;46.170;7.222;2023-05-14T10:40:14;1.77;;;1.40;;
13580;SDS011;6861;46.170;7.222;2023-05-14T10:42:43;1.45;;;1.35;;
13580;SDS011;6861;46.170;7.222;2023-05-14T10:45:13;2.00;;;1.90;;
13580;SDS011;6861;46.170;7.222;2023-05-14T10:47:43;2.28;;;1.60;;
13580;SDS011;6861;46.170;7.222;2023-05-14T10:50:13;1.30;;;1.20;;
13580;SDS011;6861;46.170;7.222;2023-05-14T10:52:43;1.50;;;1.40;;
13580;SDS011;6861;46.170;7.222;2023-05-14T10:55:13;1.65;;;1.35;;
13580;SDS011;6861;46.170;7.222;2023-05-14T10:57:44;1.50;;;1.40;;
13580;SDS011;6861;46.170;7.222;2023-05-14T11:00:13;1.60;;;1.50;;
13580;SDS011;6861;46.170;7.222;2023-05-14T11:02:42;2.67;;;1.52;;
13580;SDS011;6861;46.170;7.222;2023-05-14T11:05:12;3.40;;;2.30;;
13580;SDS011;6861;46.170;7.222;2023-05-14T11:07:44;5.85;;;3.33;;
13580;SDS011;6861;46.170;7.222;2023-05-14T11:10:15;5.60;;;4.60;;
13580;SDS011;6861;46.170;7.222;2023-05-14T11:12:44;3.00;;;2.25;;
13580;SDS011;6861;46.170;7.222;2023-05-14T11:15:15;2.35;;;1.33;;
13580;SDS011;6861;46.170;7.222;2023-05-14T11:17:45;1.95;;;1.30;;
13580;SDS011;6861;46.170;7.222;2023-05-14T11:20:14;1.38;;;1.27;;
13580;SDS011;6861;46.170;7.222;2023-05-14T11:22:44;1.10;;;1.00;;
13580;SDS011;6861;46.170;7.222;2023-05-14T11:25:15;1.77;;;1.30;;
13580;SDS011;6861;46.170;7.222;2023-05-14T11:27:44;2.00;;;1.50;;
13580;SDS011;6861;46.170;7.222;2023-05-14T11:30:14;1.95;;;1.70;;
13580;SDS011;6861;46.170;7.222;2023-05-14T11:32:43;3.40;;;1.25;;
13580;SDS011;6861;46.170;7.222;2023-05-14T11:35:13;2.30;;;1.30;;
13580;SDS011;6861;46.170;7.222;2023-05-14T11:37:41;1.67;;;1.23;;
13580;SDS011;6861;46.170;7.222;2023-05-14T11:40:13;1.17;;;1.08;;
13580;SDS011;6861;46.170;7.222;2023-05-14T11:42:43;1.50;;;1.20;;
13580;SDS011;6861;46.170;7.222;2023-05-14T11:45:12;1.55;;;1.20;;
13580;SDS011;6861;46.170;7.222;2023-05-14T11:47:40;1.50;;;1.20;;
13580;SDS011;6861;46.170;7.222;2023-05-14T11:50:09;1.05;;;1.00;;
13580;SDS011;6861;46.170;7.222;2023-05-14T11:52:38;2.72;;;1.20;;
13580;SDS011;6861;46.170;7.222;2023-05-14T11:55:09;0.98;;;0.88;;
13580;SDS011;6861;46.170;7.222;2023-05-14T11:57:40;0.73;;;0.73;;
13580;SDS011;6861;46.170;7.222;2023-05-14T12:00:09;1.13;;;0.60;;
13580;SDS011;6861;46.170;7.222;2023-05-14T12:02:42;0.82;;;0.70;;
13580;SDS011;6861;46.170;7.222;2023-05-14T12:05:11;0.80;;;0.80;;
13580;SDS011;6861;46.170;7.222;2023-05-14T12:07:42;1.38;;;0.80;;
13580;SDS011;6861;46.170;7.222;2023-05-14T12:10:11;2.70;;;0.90;;
13580;SDS011;6861;46.170;7.222;2023-05-14T12:12:43;0.90;;;0.90;;
13580;SDS011;6861;46.170;7.222;2023-05-14T12:15:13;0.88;;;0.80;;
13580;SDS011;6861;46.170;7.222;2023-05-14T12:17:48;2.20;;;0.80;;
13580;SDS011;6861;46.170;7.222;2023-05-14T12:20:18;0.70;;;0.70;;
13580;SDS011;6861;46.170;7.222;2023-05-14T12:22:47;3.65;;;0.75;;
13580;SDS011;6861;46.170;7.222;2023-05-14T12:25:16;0.70;;;0.70;;
13580;SDS011;6861;46.170;7.222;2023-05-14T12:27:47;0.90;;;0.80;;
13580;SDS011;6861;46.170;7.222;2023-05-14T12:30:16;1.73;;;0.80;;
13580;SDS011;6861;46.170;7.222;2023-05-14T12:32:47;0.77;;;0.70;;
13580;SDS011;6861;46.170;7.222;2023-05-14T12:35:19;0.85;;;0.60;;
13580;SDS011;6861;46.170;7.222;2023-05-14T12:37:48;0.95;;;0.80;;
13580;SDS011;6861;46.170;7.222;2023-05-14T12:40:17;0.70;;;0.70;;
13580;SDS011;6861;46.170;7.222;2023-05-14T12:42:46;1.80;;;0.70;;
13580;SDS011;6861;46.170;7.222;2023-05-14T12:45:15;0.95;;;0.82;;
13580;SDS011;6861;46.170;7.222;2023-05-14T12:47:43;1.67;;;0.70;;
13580;SDS011;6861;46.170;7.222;2023-05-14T12:50:11;4.38;;;0.80;;
13580;SDS011;6861;46.170;7.222;2023-05-14T12:52:40;0.80;;;0.80;;
13580;SDS011;6861;46.170;7.222;2023-05-14T12:55:08;2.25;;;0.80;;
13580;SDS011;6861;46.170;7.222;2023-05-14T12:57:36;1.00;;;0.70;;
13580;SDS011;6861;46.170;7.222;2023-05-14T13:00:07;0.95;;;0.85;;
13580;SDS011;6861;46.170;7.222;2023-05-14T13:02:39;4.10;;;0.88;;
13580;SDS011;6861;46.170;7.222;2023-05-14T13:05:09;1.08;;;1.02;;
13580;SDS011;6861;46.170;7.222;2023-05-14T13:07:38;0.70;;;0.70;;
13580;SDS011;6861;46.170;7.222;2023-05-14T13:10:06;0.77;;;0.77;;
13580;SDS011;6861;46.170;7.222;2023-05-14T13:12:35;2.22;;;0.77;;
13580;SDS011;6861;46.170;7.222;2023-05-14T13:15:04;1.55;;;0.60;;
13580;SDS011;6861;46.170;7.222;2023-05-14T13:17:35;1.40;;;0.70;;
13580;SDS011;6861;46.170;7.222;2023-05-14T13:20:03;0.70;;;0.70;;
13580;SDS011;6861;46.170;7.222;2023-05-14T13:22:32;1.75;;;0.70;;
13580;SDS011;6861;46.170;7.222;2023-05-14T13:25:01;0.70;;;0.70;;
13580;SDS011;6861;46.170;7.222;2023-05-14T13:27:30;3.33;;;0.90;;
13580;SDS011;6861;46.170;7.222;2023-05-14T13:29:59;1.70;;;0.65;;
13580;SDS011;6861;46.170;7.222;2023-05-14T13:32:28;1.50;;;0.65;;
13580;SDS011;6861;46.170;7.222;2023-05-14T13:34:56;0.90;;;0.80;;
13580;SDS011;6861;46.170;7.222;2023-05-14T13:37:25;1.83;;;0.80;;
13580;SDS011;6861;46.170;7.222;2023-05-14T13:39:53;1.52;;;0.63;;
13580;SDS011;6861;46.170;7.222;2023-05-14T13:42:21;1.05;;;0.80;;
13580;SDS011;6861;46.170;7.222;2023-05-14T13:44:49;1.70;;;0.80;;
13580;SDS011;6861;46.170;7.222;2023-05-14T13:47:17;0.80;;;0.80;;
13580;SDS011;6861;46.170;7.222;2023-05-14T13:49:47;0.88;;;0.88;;
13580;SDS011;6861;46.170;7.222;2023-05-14T13:52:15;0.93;;;0.88;;
13580;SDS011;6861;46.170;7.222;2023-05-14T13:54:43;1.05;;;0.95;;
13580;SDS011;6861;46.170;7.222;2023-05-14T13:57:12;1.15;;;1.05;;
13580;SDS011;6861;46.170;7.222;2023-05-14T13:59:40;1.23;;;1.02;;
13580;SDS011;6861;46.170;7.222;2023-05-14T14:02:09;1.08;;;0.90;;
13580;SDS011;6861;46.170;7.222;2023-05-14T14:04:37;1.33;;;1.10;;
13580;SDS011;6861;46.170;7.222;2023-05-14T14:07:06;1.20;;;1.00;;
13580;SDS011;6861;46.170;7.222;2023-05-14T14:09:34;1.20;;;1.10;;
13580;SDS011;6861;46.170;7.222;2023-05-14T14:12:03;1.10;;;1.00;;
13580;SDS011;6861;46.170;7.222;2023-05-14T14:14:32;1.55;;;0.93;;
13580;SDS011;6861;46.170;7.222;2023-05-14T14:17:00;1.10;;;1.10;;
13580;SDS011;6861;46.170;7.222;2023-05-14T14:19:28;1.10;;;1.00;;
13580;SDS011;6861;46.170;7.222;2023-05-14T14:21:56;0.98;;;0.90;;
13580;SDS011;6861;46.170;7.222;2023-05-14T14:24:26;5.07;;;0.85;;
13580;SDS011;6861;46.170;7.222;2023-05-14T14:26:54;0.80;;;0.80;;
13580;SDS011;6861;46.170;7.222;2023-05-14T14:29:22;1.63;;;0.90;;
13580;SDS011;6861;46.170;7.222;2023-05-14T14:31:50;1.15;;;1.02;;
13580;SDS011;6861;46.170;7.222;2023-05-14T14:34:18;1.08;;;0.98;;
13580;SDS011;6861;46.170;7.222;2023-05-14T14:36:47;1.42;;;1.00;;
13580;SDS011;6861;46.170;7.222;2023-05-14T14:39:15;2.25;;;0.98;;
13580;SDS011;6861;46.170;7.222;2023-05-14T14:41:44;2.25;;;0.90;;
13580;SDS011;6861;46.170;7.222;2023-05-14T14:44:13;1.52;;;0.90;;
13580;SDS011;6861;46.170;7.222;2023-05-14T14:46:41;0.70;;;0.70;;
13580;SDS011;6861;46.170;7.222;2023-05-14T14:49:09;0.70;;;0.60;;
13580;SDS011;6861;46.170;7.222;2023-05-14T14:51:37;2.25;;;0.90;;
13580;SDS011;6861;46.170;7.222;2023-05-14T14:54:06;1.10;;;0.70;;
13580;SDS011;6861;46.170;7.222;2023-05-14T14:56:34;1.75;;;0.60;;
13580;SDS011;6861;46.170;7.222;2023-05-14T14:59:03;0.80;;;0.60;;
13580;SDS011;6861;46.170;7.222;2023-05-14T15:01:32;1.23;;;0.70;;
13580;SDS011;6861;46.170;7.222;2023-05-14T15:04:00;0.60;;;0.60;;
13580;SDS011;6861;46.170;7.222;2023-05-14T15:06:28;0.93;;;0.82;;
13580;SDS011;6861;46.170;7.222;2023-05-14T15:08:56;0.90;;;0.73;;
13580;SDS011;6861;46.170;7.222;2023-05-14T15:11:25;0.90;;;0.50;;
13580;SDS011;6861;46.170;7.222;2023-05-14T15:13:54;0.70;;;0.70;;
13580;SDS011;6861;46.170;7.222;2023-05-14T15:16:23;1.00;;;0.70;;